Jakarta/Soekarno-Hatta, Indonesia
Current Conditions -  °F | °C
As of 3:00 PM on Friday 28 Nov 2014 (Local Time) from WIII Reporting Station
Thunderstorm Thunderstorm  
Wind Chill: 88°   Ceiling: 2100
Heat Index: 96°   Visibility: 4mi
Dew Point: 73°   Wind: 17mph
Humidity: 62%   Direction: 140°SE
Pressure: 29.71"   Gusts: NA
Location:  6.13°S, 106.66°E
Report Text: WIII 280800Z 14015KT 6000 TS SCT020CB BKN021 31/23 Q1006 NOSIG RMK CB TO S AND SE
Loading
Personal Weather Stations






























Interactive Weather Map New forecast layout! Learn more

10-Day Weather Forecast

Advertisements
Track Severe Weather on mobile